createdAt,value
2019-05-09T00:02:25.788Z,9.50
2019-05-09T00:07:19.394Z,9.30
2019-05-09T00:12:14.807Z,9.30
2019-05-09T00:17:08.697Z,9.20
2019-05-09T00:22:03.338Z,9.10
2019-05-09T00:26:57.278Z,9.10
2019-05-09T00:32:10.649Z,9.10
2019-05-09T00:37:04.367Z,9.10
2019-05-09T00:41:58.133Z,9.10
2019-05-09T00:46:58.456Z,9.10
2019-05-09T00:51:54.075Z,9.10
2019-05-09T00:56:47.907Z,9.10
2019-05-09T01:01:43.732Z,9.00
2019-05-09T01:06:37.500Z,8.90
2019-05-09T01:11:33.219Z,8.80
2019-05-09T01:16:26.837Z,8.60
2019-05-09T01:21:20.698Z,8.50
2019-05-09T01:26:14.535Z,8.40
2019-05-09T01:31:08.385Z,8.50
2019-05-09T01:36:03.751Z,8.50
2019-05-09T01:40:57.782Z,8.50
2019-05-09T01:45:53.902Z,8.50
2019-05-09T01:50:47.432Z,8.60
2019-05-09T01:55:59.755Z,8.60
2019-05-09T02:00:54.067Z,8.70
2019-05-09T02:05:47.869Z,8.70
2019-05-09T02:10:41.625Z,8.80
2019-05-09T02:15:57.822Z,8.70
2019-05-09T02:20:53.291Z,8.80
2019-05-09T02:25:47.134Z,8.80
2019-05-09T02:30:44.778Z,8.80
2019-05-09T02:35:47.889Z,8.80
2019-05-09T02:40:32.521Z,8.60
2019-05-09T02:45:29.568Z,8.50
2019-05-09T02:50:24.932Z,8.50
2019-05-09T02:55:18.799Z,8.40
2019-05-09T03:00:39.531Z,8.30
2019-05-09T03:05:32.036Z,8.20
2019-05-09T03:10:25.752Z,8.20
2019-05-09T03:15:19.668Z,8.40
2019-05-09T03:20:20.974Z,8.50
2019-05-09T03:25:14.983Z,8.60
2019-05-09T03:30:12.630Z,8.70
2019-05-09T03:35:08.436Z,8.70
2019-05-09T03:40:01.905Z,8.80
2019-05-09T03:44:58.134Z,8.80
2019-05-09T03:50:12.895Z,8.80
2019-05-09T03:55:07.496Z,8.80
2019-05-09T04:00:01.436Z,8.90
2019-05-09T04:04:55.061Z,8.90
2019-05-09T04:09:48.900Z,8.80
2019-05-09T04:14:42.668Z,8.80
2019-05-09T04:19:38.059Z,8.90
2019-05-09T04:24:34.309Z,9.00
2019-05-09T04:29:28.556Z,9.10
2019-05-09T04:34:22.439Z,9.10
2019-05-09T04:39:21.671Z,9.20
2019-05-09T04:44:31.580Z,9.30
2019-05-09T04:49:29.617Z,9.30
2019-05-09T04:54:21.042Z,9.30
2019-05-09T04:59:15.006Z,9.50
2019-05-09T05:04:09.043Z,9.60
2019-05-09T05:09:04.741Z,9.90
2019-05-09T05:13:58.881Z,10.30
2019-05-09T05:18:52.851Z,11.70
2019-05-09T05:24:14.074Z,12.60
2019-05-09T05:29:08.551Z,12.30
2019-05-09T05:34:08.295Z,13.70
2019-05-09T05:39:03.520Z,15.60
2019-05-09T05:43:58.136Z,16.20
2019-05-09T05:48:53.108Z,17.00
2019-05-09T05:53:48.073Z,16.80
2019-05-09T05:58:42.178Z,15.00
2019-05-09T06:03:37.709Z,16.00
2019-05-09T06:08:31.596Z,17.50
2019-05-09T06:13:27.478Z,17.10
2019-05-09T06:18:21.219Z,17.90
2019-05-09T06:23:17.443Z,19.40
2019-05-09T06:28:10.955Z,19.50
2019-05-09T06:33:05.723Z,18.20
2019-05-09T06:38:00.561Z,17.90
2019-05-09T06:42:54.530Z,16.00
2019-05-09T06:47:48.787Z,17.30
2019-05-09T06:52:42.796Z,19.80
2019-05-09T06:57:42.186Z,20.90
2019-05-09T07:02:39.807Z,20.70
2019-05-09T07:07:57.647Z,19.00
2019-05-09T07:12:51.633Z,18.40
2019-05-09T07:17:48.301Z,16.80
2019-05-09T07:22:49.061Z,16.00
2019-05-09T07:27:43.172Z,15.30
2019-05-09T07:32:44.840Z,15.10
2019-05-09T07:37:38.906Z,15.20
2019-05-09T07:42:33.041Z,15.00
2019-05-09T07:47:28.194Z,15.50
2019-05-09T07:52:22.240Z,15.50
2019-05-09T07:57:18.135Z,16.30
2019-05-09T08:02:12.258Z,15.90
2019-05-09T08:07:08.343Z,16.50
2019-05-09T08:12:01.935Z,15.80
2019-05-09T08:16:58.035Z,15.10
2019-05-09T08:21:51.730Z,14.50
2019-05-09T08:26:47.824Z,14.20
2019-05-09T08:31:41.644Z,14.30
2019-05-09T08:36:35.760Z,14.20
2019-05-09T08:41:30.776Z,14.10
2019-05-09T08:46:24.734Z,14.00
2019-05-09T08:51:52.687Z,14.00
2019-05-09T08:56:38.686Z,13.90
2019-05-09T09:01:50.110Z,13.90
2019-05-09T09:06:28.248Z,14.20
2019-05-09T09:11:22.251Z,14.30
2019-05-09T09:16:22.049Z,14.30
2019-05-09T09:21:11.995Z,14.20
2019-05-09T09:26:08.078Z,14.30
2019-05-09T09:31:01.713Z,14.30
2019-05-09T09:35:57.942Z,14.50
2019-05-09T09:40:51.971Z,14.70
2019-05-09T09:45:48.054Z,14.80
2019-05-09T09:50:41.861Z,14.20
2019-05-09T09:55:38.184Z,13.80
2019-05-09T10:01:03.146Z,13.80
2019-05-09T10:05:57.783Z,14.30
2019-05-09T10:10:51.663Z,14.00
2019-05-09T10:16:02.199Z,13.70
2019-05-09T10:21:01.518Z,14.30
2019-05-09T10:25:57.970Z,14.70
2019-05-09T10:30:51.680Z,14.70
2019-05-09T10:35:47.917Z,14.40
2019-05-09T10:40:41.778Z,14.70
2019-05-09T10:45:44.067Z,14.90
2019-05-09T10:50:44.831Z,15.30
2019-05-09T10:55:34.121Z,15.70
2019-05-09T11:00:28.876Z,16.40
2019-05-09T11:05:23.209Z,16.60
2019-05-09T11:10:25.744Z,16.10
2019-05-09T11:15:13.258Z,16.10
2019-05-09T11:20:08.726Z,16.40
2019-05-09T11:25:03.038Z,16.00
2019-05-09T11:29:57.829Z,16.00
2019-05-09T11:34:52.125Z,15.60
2019-05-09T11:39:48.030Z,15.30
2019-05-09T11:44:41.912Z,16.00
2019-05-09T11:49:35.950Z,16.70
2019-05-09T11:54:29.889Z,17.80
2019-05-09T11:59:23.792Z,18.00
2019-05-09T12:04:18.669Z,17.90
2019-05-09T12:09:14.903Z,18.00
2019-05-09T12:14:09.439Z,17.30
2019-05-09T12:19:03.735Z,17.30
2019-05-09T12:23:58.488Z,17.70
2019-05-09T12:28:52.768Z,17.90
2019-05-09T12:33:48.297Z,17.80
2019-05-09T12:38:45.968Z,18.20
2019-05-09T12:43:38.308Z,17.40
2019-05-09T12:48:32.233Z,16.90
2019-05-09T12:53:28.000Z,16.10
2019-05-09T12:58:27.855Z,15.80
2019-05-09T13:03:21.935Z,15.60
2019-05-09T13:08:17.761Z,16.00
2019-05-09T13:13:11.806Z,16.00
2019-05-09T13:18:05.594Z,16.60
2019-05-09T13:22:59.556Z,17.40
2019-05-09T13:27:53.605Z,17.40
2019-05-09T13:32:48.410Z,17.20
2019-05-09T13:37:42.674Z,17.00
2019-05-09T13:42:39.579Z,17.70
2019-05-09T13:47:32.510Z,18.20
2019-05-09T13:52:27.597Z,17.90
2019-05-09T13:57:21.741Z,17.20
2019-05-09T14:02:18.762Z,16.30
2019-05-09T14:07:12.416Z,16.60
2019-05-09T14:12:09.123Z,16.10
2019-05-09T14:17:02.674Z,15.70
2019-05-09T14:21:58.585Z,15.90
2019-05-09T14:26:52.193Z,16.50
2019-05-09T14:31:46.337Z,16.60
2019-05-09T14:36:45.253Z,16.90
2019-05-09T14:41:39.063Z,16.90
2019-05-09T14:46:31.979Z,17.00
2019-05-09T14:51:28.262Z,17.20
2019-05-09T14:56:22.094Z,16.90
2019-05-09T15:01:19.105Z,17.00
2019-05-09T15:06:11.733Z,16.80
2019-05-09T15:11:09.749Z,16.80
2019-05-09T15:16:01.242Z,16.60
2019-05-09T15:20:55.226Z,16.60
2019-05-09T15:25:49.146Z,17.50
2019-05-09T15:30:43.037Z,17.30
2019-05-09T15:35:39.101Z,17.90
2019-05-09T15:40:32.609Z,17.60
2019-05-09T15:45:28.644Z,17.50
2019-05-09T15:50:23.376Z,17.40
2019-05-09T15:55:18.617Z,17.40
2019-05-09T16:00:13.812Z,17.80
2019-05-09T16:05:10.487Z,18.00
2019-05-09T16:10:03.679Z,17.80
2019-05-09T16:14:57.766Z,17.90
2019-05-09T16:19:51.760Z,18.60
2019-05-09T16:24:45.371Z,19.20
2019-05-09T16:29:39.837Z,19.10
2019-05-09T16:34:33.741Z,18.50
2019-05-09T16:39:28.077Z,17.80
2019-05-09T16:44:22.306Z,17.40
2019-05-09T16:49:19.730Z,17.30
2019-05-09T16:54:13.049Z,17.50
2019-05-09T16:59:08.246Z,17.30
2019-05-09T17:04:02.389Z,17.30
2019-05-09T17:08:58.413Z,17.20
2019-05-09T17:13:52.192Z,17.00
2019-05-09T17:18:48.483Z,17.00
2019-05-09T17:23:41.727Z,17.00
2019-05-09T17:28:37.615Z,17.20
2019-05-09T17:33:32.073Z,17.30
2019-05-09T17:38:27.913Z,17.30
2019-05-09T17:43:23.810Z,17.30
2019-05-09T17:48:18.472Z,16.90
2019-05-09T17:53:12.542Z,16.80
2019-05-09T17:58:08.750Z,16.70
2019-05-09T18:03:02.486Z,16.80
2019-05-09T18:07:57.915Z,16.70
2019-05-09T18:12:51.946Z,16.50
2019-05-09T18:17:47.812Z,16.30
2019-05-09T18:22:41.844Z,16.20
2019-05-09T18:27:37.757Z,16.20
2019-05-09T18:32:47.647Z,16.00
2019-05-09T18:37:41.941Z,15.30
2019-05-09T18:42:35.891Z,14.90
2019-05-09T18:47:29.906Z,14.40
2019-05-09T18:52:23.963Z,13.60
2019-05-09T18:57:17.981Z,13.40
2019-05-09T19:02:11.965Z,13.00
2019-05-09T19:07:20.701Z,12.80
2019-05-09T19:12:01.808Z,12.50
2019-05-09T19:17:14.310Z,12.40
2019-05-09T19:22:21.487Z,12.20
2019-05-09T19:27:04.161Z,12.20
2019-05-09T19:31:58.138Z,12.30
2019-05-09T19:36:52.059Z,12.30
2019-05-09T19:41:46.048Z,12.20
2019-05-09T19:46:40.101Z,12.30
2019-05-09T19:51:33.925Z,12.20
2019-05-09T19:56:27.890Z,11.90
2019-05-09T20:01:22.014Z,11.80
2019-05-09T20:06:16.617Z,11.60
2019-05-09T20:11:33.368Z,11.50
2019-05-09T20:16:29.522Z,11.50
2019-05-09T20:21:23.653Z,11.20
2019-05-09T20:26:18.607Z,11.10
2019-05-09T20:31:13.876Z,11.20
2019-05-09T20:36:07.801Z,11.30
2019-05-09T20:41:01.869Z,11.20
2019-05-09T20:45:55.855Z,11.30
2019-05-09T20:50:50.892Z,11.40
2019-05-09T20:55:45.126Z,11.50
2019-05-09T21:00:39.208Z,11.60
2019-05-09T21:05:33.772Z,11.50
2019-05-09T21:10:27.719Z,11.70
2019-05-09T21:15:23.108Z,11.70
2019-05-09T21:20:18.532Z,11.70
2019-05-09T21:25:12.550Z,11.70
2019-05-09T21:30:06.925Z,11.70
2019-05-09T21:35:00.940Z,11.70
2019-05-09T21:39:55.113Z,11.60
2019-05-09T21:44:49.173Z,11.50
2019-05-09T21:49:43.097Z,11.50
2019-05-09T21:54:36.894Z,11.40
2019-05-09T21:59:30.893Z,11.50
2019-05-09T22:04:24.875Z,11.50
2019-05-09T22:09:18.733Z,11.50
2019-05-09T22:14:13.787Z,11.40
2019-05-09T22:19:09.778Z,11.40
2019-05-09T22:24:04.368Z,11.30
2019-05-09T22:28:58.333Z,11.30
2019-05-09T22:33:52.305Z,11.30
2019-05-09T22:38:46.190Z,11.30
2019-05-09T22:43:40.156Z,11.30
2019-05-09T22:48:34.074Z,11.40
2019-05-09T22:53:27.872Z,11.30
2019-05-09T22:58:22.038Z,11.10
2019-05-09T23:03:16.036Z,10.90
2019-05-09T23:08:10.568Z,10.70
2019-05-09T23:13:04.675Z,10.50
2019-05-09T23:17:58.770Z,10.40
2019-05-09T23:22:53.030Z,10.20
2019-05-09T23:27:47.126Z,10.00
2019-05-09T23:32:43.472Z,9.90
2019-05-09T23:37:37.134Z,9.80
2019-05-09T23:42:31.008Z,9.90
2019-05-09T23:47:24.859Z,10.10
2019-05-09T23:52:18.731Z,10.20
2019-05-09T23:57:30.822Z,10.30
